createdAt,value
2017-04-08T00:00:08.384Z,6.14
2017-04-08T00:01:08.056Z,5.64
2017-04-08T00:02:07.789Z,6.07
2017-04-08T00:03:07.567Z,6.36
2017-04-08T00:04:07.531Z,6.06
2017-04-08T00:05:07.223Z,5.73
2017-04-08T00:06:08.386Z,5.57
2017-04-08T00:07:08.080Z,5.34
2017-04-08T00:08:08.050Z,5.69
2017-04-08T00:09:07.988Z,5.93
2017-04-08T00:10:07.733Z,5.76
2017-04-08T00:11:07.544Z,5.90
2017-04-08T00:12:07.259Z,5.07
2017-04-08T00:13:06.953Z,5.89
2017-04-08T00:14:06.731Z,5.91
2017-04-08T00:15:06.432Z,5.57
2017-04-08T00:16:06.107Z,5.36
2017-04-08T00:17:05.783Z,5.73
2017-04-08T00:18:05.454Z,5.79
2017-04-08T00:19:05.135Z,5.94
2017-04-08T00:20:04.846Z,5.10
2017-04-08T00:21:04.584Z,5.29
2017-04-08T00:22:04.236Z,6.00
2017-04-08T00:23:03.900Z,5.00
2017-04-08T00:24:03.587Z,5.34
2017-04-08T00:25:03.366Z,5.84
2017-04-08T00:26:03.063Z,5.76
2017-04-08T00:27:02.798Z,5.91
2017-04-08T00:28:02.635Z,5.33
2017-04-08T00:29:02.340Z,5.40
2017-04-08T00:30:02.092Z,5.31
2017-04-08T00:31:01.818Z,5.29
2017-04-08T00:32:01.544Z,5.06
2017-04-08T00:33:01.244Z,4.67
2017-04-08T00:34:00.967Z,5.16
2017-04-08T00:35:00.631Z,5.56
2017-04-08T00:36:00.402Z,5.51
2017-04-08T00:37:00.152Z,5.06
2017-04-08T00:37:59.908Z,5.59
2017-04-08T00:38:59.644Z,5.19
2017-04-08T00:39:59.295Z,5.07
2017-04-08T00:40:59.020Z,5.36
2017-04-08T00:41:58.775Z,5.19
2017-04-08T00:42:58.462Z,5.13
2017-04-08T00:43:58.232Z,6.09
2017-04-08T00:44:57.972Z,5.24
2017-04-08T00:45:57.804Z,5.13
2017-04-08T00:46:57.518Z,4.91
2017-04-08T00:47:57.208Z,5.93
2017-04-08T00:48:56.918Z,4.99
2017-04-08T00:49:56.607Z,4.74
2017-04-08T00:50:56.359Z,4.80
2017-04-08T00:51:56.055Z,5.30
2017-04-08T00:52:55.781Z,4.91
2017-04-08T00:53:55.783Z,5.71
2017-04-08T00:54:55.488Z,5.34
2017-04-08T00:55:55.195Z,5.24
2017-04-08T00:56:54.951Z,5.10
2017-04-08T00:57:54.678Z,5.11
2017-04-08T00:58:54.375Z,5.40
2017-04-08T00:59:54.089Z,5.73
2017-04-08T01:00:59.035Z,5.11
2017-04-08T01:02:03.634Z,4.70
2017-04-08T01:03:03.420Z,5.61
2017-04-08T01:04:03.136Z,4.80
2017-04-08T01:05:03.051Z,5.20
2017-04-08T01:06:02.806Z,4.37
2017-04-08T01:07:02.620Z,5.53
2017-04-08T01:08:02.318Z,5.26
2017-04-08T01:09:02.024Z,4.76
2017-04-08T01:10:01.708Z,4.83
2017-04-08T01:11:01.477Z,5.56
2017-04-08T01:12:01.162Z,5.07
2017-04-08T01:13:00.873Z,4.87
2017-04-08T01:14:00.915Z,4.49
2017-04-08T01:15:00.591Z,4.33
2017-04-08T01:16:00.361Z,4.80
2017-04-08T01:17:00.727Z,5.00
2017-04-08T01:18:00.427Z,4.63
2017-04-08T01:19:00.143Z,4.91
2017-04-08T01:19:59.916Z,4.80
2017-04-08T01:20:59.631Z,4.90
2017-04-08T01:21:59.312Z,4.54
2017-04-08T01:22:59.081Z,4.59
2017-04-08T01:23:58.795Z,4.93
2017-04-08T01:24:59.059Z,4.60
2017-04-08T01:25:58.783Z,4.31
2017-04-08T01:26:58.508Z,5.21
2017-04-08T01:27:58.180Z,4.97
2017-04-08T01:28:58.315Z,4.34
2017-04-08T01:29:58.031Z,4.50
2017-04-08T01:30:57.748Z,4.51
2017-04-08T01:31:57.703Z,4.51
2017-04-08T01:32:57.390Z,4.69
2017-04-08T01:33:57.125Z,4.47
2017-04-08T01:34:56.864Z,4.47
2017-04-08T01:35:56.562Z,4.29
2017-04-08T01:36:56.231Z,4.63
2017-04-08T01:37:55.891Z,4.41
2017-04-08T01:38:55.599Z,4.16
2017-04-08T01:39:55.380Z,4.37
2017-04-08T01:40:55.074Z,4.59
2017-04-08T01:41:54.767Z,4.50
2017-04-08T01:42:54.447Z,4.90
2017-04-08T01:43:54.123Z,4.33
2017-04-08T01:44:53.792Z,4.63
2017-04-08T01:45:53.491Z,4.44
2017-04-08T01:46:53.202Z,4.73
2017-04-08T01:47:52.915Z,4.47
2017-04-08T01:48:52.667Z,4.54
2017-04-08T01:49:52.525Z,4.04
2017-04-08T01:50:52.232Z,4.83
2017-04-08T01:51:51.928Z,4.33
2017-04-08T01:52:51.595Z,4.30
2017-04-08T01:53:51.265Z,4.57
2017-04-08T01:54:50.950Z,4.19
2017-04-08T01:55:50.620Z,3.94
2017-04-08T01:56:50.300Z,3.91
2017-04-08T01:57:50.060Z,4.39
2017-04-08T01:58:49.728Z,3.74
2017-04-08T01:59:49.377Z,3.97
2017-04-08T02:00:49.718Z,4.43
2017-04-08T02:01:50.205Z,4.29
2017-04-08T02:02:49.967Z,4.30
2017-04-08T02:03:50.490Z,4.53
2017-04-08T02:04:50.245Z,4.56
2017-04-08T02:05:50.010Z,3.94
2017-04-08T02:06:49.716Z,4.33
2017-04-08T02:07:49.684Z,4.27
2017-04-08T02:08:49.473Z,4.34
2017-04-08T02:09:49.196Z,4.01
2017-04-08T02:10:48.965Z,3.94
2017-04-08T02:11:48.719Z,4.46
2017-04-08T02:12:48.395Z,4.13
2017-04-08T02:13:48.084Z,4.03
2017-04-08T02:14:47.852Z,3.89
2017-04-08T02:15:47.528Z,3.90
2017-04-08T02:16:47.186Z,3.90
2017-04-08T02:17:46.871Z,4.56
2017-04-08T02:18:46.543Z,4.37
2017-04-08T02:19:46.270Z,3.93
2017-04-08T02:20:45.998Z,3.99
2017-04-08T02:21:45.709Z,3.71
2017-04-08T02:22:45.381Z,3.94
2017-04-08T02:23:45.062Z,4.31
2017-04-08T02:24:44.759Z,4.00
2017-04-08T02:25:44.452Z,4.66
2017-04-08T02:26:44.179Z,3.94
2017-04-08T02:27:43.868Z,3.66
2017-04-08T02:28:43.516Z,3.86
2017-04-08T02:29:43.216Z,4.36
2017-04-08T02:30:42.920Z,4.26
2017-04-08T02:31:42.665Z,3.97
2017-04-08T02:32:42.344Z,3.40
2017-04-08T02:33:42.025Z,3.90
2017-04-08T02:34:41.700Z,3.97
2017-04-08T02:35:41.348Z,4.00
2017-04-08T02:36:41.075Z,4.09
2017-04-08T02:37:40.765Z,3.84
2017-04-08T02:38:40.455Z,3.97
2017-04-08T02:39:40.180Z,3.87
2017-04-08T02:40:39.832Z,4.20
2017-04-08T02:41:39.559Z,3.74
2017-04-08T02:42:39.230Z,3.83
2017-04-08T02:43:38.921Z,3.50
2017-04-08T02:44:38.636Z,4.29
2017-04-08T02:45:38.364Z,3.91
2017-04-08T02:46:38.060Z,3.44
2017-04-08T02:47:37.751Z,4.01
2017-04-08T02:48:37.470Z,3.89
2017-04-08T02:49:37.197Z,3.81
2017-04-08T02:50:36.870Z,3.36
2017-04-08T02:51:36.558Z,3.77
2017-04-08T02:52:36.277Z,3.93
2017-04-08T02:53:35.964Z,3.50
2017-04-08T02:54:35.678Z,4.01
2017-04-08T02:55:35.360Z,3.89
2017-04-08T02:56:35.046Z,3.86
2017-04-08T02:57:34.728Z,3.49
2017-04-08T02:58:34.404Z,3.97
2017-04-08T02:59:34.101Z,3.49
2017-04-08T03:00:33.927Z,3.66
2017-04-08T03:01:33.572Z,3.49
2017-04-08T03:02:33.419Z,4.01
2017-04-08T03:03:33.062Z,3.90
2017-04-08T03:04:32.807Z,3.51
2017-04-08T03:05:32.492Z,3.76
2017-04-08T03:06:32.228Z,3.63
2017-04-08T03:07:31.895Z,3.83
2017-04-08T03:08:31.546Z,3.80
2017-04-08T03:09:31.243Z,3.53
2017-04-08T03:10:30.982Z,3.21
2017-04-08T03:11:30.688Z,3.66
2017-04-08T03:12:30.359Z,3.91
2017-04-08T03:13:30.052Z,3.23
2017-04-08T03:14:29.741Z,3.84
2017-04-08T03:15:29.387Z,3.74
2017-04-08T03:16:29.085Z,3.43
2017-04-08T03:17:28.771Z,3.21
2017-04-08T03:18:28.551Z,3.50
2017-04-08T03:19:28.337Z,3.84
2017-04-08T03:20:28.071Z,3.46
2017-04-08T03:21:28.012Z,3.76
2017-04-08T03:22:27.719Z,3.53
2017-04-08T03:23:27.447Z,3.59
2017-04-08T03:24:27.124Z,3.51
2017-04-08T03:25:26.803Z,3.71
2017-04-08T03:26:26.483Z,3.43
2017-04-08T03:27:26.155Z,3.59
2017-04-08T03:28:25.923Z,3.37
2017-04-08T03:29:25.556Z,3.60
2017-04-08T03:30:25.255Z,3.11
2017-04-08T03:31:24.888Z,3.34
2017-04-08T03:32:24.608Z,3.51
2017-04-08T03:34:44.303Z,3.21
2017-04-08T03:35:44.393Z,3.24
2017-04-08T03:36:44.109Z,3.37
2017-04-08T03:37:43.783Z,3.80
2017-04-08T03:38:43.485Z,3.39
2017-04-08T03:39:43.144Z,3.87
2017-04-08T03:40:42.816Z,3.19
2017-04-08T03:41:42.476Z,3.37
2017-04-08T03:42:42.162Z,3.44
2017-04-08T03:43:41.828Z,3.63
2017-04-08T03:44:41.507Z,3.44
2017-04-08T03:45:41.187Z,3.24
2017-04-08T03:46:40.847Z,2.84
2017-04-08T03:47:40.543Z,3.01
2017-04-08T03:48:40.198Z,3.89
2017-04-08T03:49:39.845Z,3.13
2017-04-08T03:50:39.542Z,3.41
2017-04-08T03:51:39.216Z,3.16
2017-04-08T03:52:38.872Z,3.19
2017-04-08T03:53:38.572Z,2.93
2017-04-08T03:54:38.340Z,3.63
2017-04-08T03:55:37.975Z,2.89
2017-04-08T03:56:37.690Z,3.33
2017-04-08T03:57:37.364Z,3.21
2017-04-08T03:58:37.296Z,3.29
2017-04-08T03:59:36.957Z,3.04
2017-04-08T04:00:36.611Z,2.93
2017-04-08T04:01:36.319Z,2.94
2017-04-08T04:02:36.001Z,3.14
2017-04-08T04:03:35.710Z,2.84
2017-04-08T04:04:35.396Z,3.24
2017-04-08T04:05:35.090Z,3.06
2017-04-08T04:06:34.723Z,3.20
2017-04-08T04:07:34.369Z,3.27
2017-04-08T04:08:34.120Z,3.54
2017-04-08T04:09:33.802Z,2.61
2017-04-08T04:10:33.532Z,3.01
2017-04-08T04:11:33.497Z,3.23
2017-04-08T04:12:33.169Z,3.19
2017-04-08T04:13:32.864Z,3.24
2017-04-08T04:14:32.561Z,2.94
2017-04-08T04:15:32.216Z,2.93
2017-04-08T04:16:32.143Z,3.31
2017-04-08T04:17:32.115Z,2.89
2017-04-08T04:18:31.831Z,2.99
2017-04-08T04:19:31.518Z,3.33
2017-04-08T04:20:31.217Z,3.10
2017-04-08T04:21:30.879Z,3.19
2017-04-08T04:22:30.589Z,3.31
2017-04-08T04:23:30.280Z,2.76
2017-04-08T04:24:29.944Z,2.97
2017-04-08T04:25:29.647Z,2.90
2017-04-08T04:26:29.390Z,3.26
2017-04-08T04:27:29.067Z,3.17
2017-04-08T04:28:29.511Z,2.89
2017-04-08T04:29:29.360Z,2.96
2017-04-08T04:30:29.051Z,2.97
2017-04-08T04:31:28.731Z,3.20
2017-04-08T04:32:28.423Z,2.80
2017-04-08T04:33:28.122Z,2.90
2017-04-08T04:34:27.823Z,3.04
2017-04-08T04:35:27.505Z,2.90
2017-04-08T04:36:27.210Z,3.27
2017-04-08T04:37:26.981Z,2.71
2017-04-08T04:38:26.676Z,3.31
2017-04-08T04:39:26.837Z,2.87
2017-04-08T04:40:26.528Z,2.94
2017-04-08T04:41:26.307Z,2.70
2017-04-08T04:42:25.976Z,3.03
2017-04-08T04:43:25.621Z,3.14
2017-04-08T04:44:25.311Z,2.90
2017-04-08T04:45:25.039Z,3.24
2017-04-08T04:46:24.687Z,3.03
2017-04-08T04:47:24.531Z,3.34
2017-04-08T04:48:24.186Z,2.50
2017-04-08T04:49:23.856Z,3.06
2017-04-08T04:50:24.927Z,2.84
2017-04-08T04:51:24.637Z,3.09
2017-04-08T04:52:24.335Z,2.86
2017-04-08T04:53:24.008Z,3.03
2017-04-08T04:54:23.695Z,3.40
2017-04-08T04:55:23.486Z,3.23
2017-04-08T04:56:23.181Z,2.73
2017-04-08T04:57:22.943Z,2.83
2017-04-08T04:58:22.664Z,3.19
2017-04-08T04:59:22.373Z,2.97
2017-04-08T05:00:22.072Z,3.21
2017-04-08T05:01:21.760Z,2.74
2017-04-08T05:02:21.548Z,2.54
2017-04-08T05:03:21.245Z,2.81
2017-04-08T05:04:20.972Z,2.94
2017-04-08T05:05:20.661Z,3.29
2017-04-08T05:06:20.355Z,3.56
2017-04-08T05:07:20.021Z,2.80
2017-04-08T05:08:19.697Z,3.03
2017-04-08T05:09:19.336Z,3.07
2017-04-08T05:10:19.061Z,2.97
2017-04-08T05:11:18.769Z,3.14
2017-04-08T05:12:18.523Z,2.97
2017-04-08T05:13:18.215Z,3.00
2017-04-08T05:14:17.883Z,3.37
2017-04-08T05:15:17.851Z,3.03
2017-04-08T05:16:17.528Z,2.97
2017-04-08T05:17:17.176Z,2.83
2017-04-08T05:18:16.861Z,2.80
2017-04-08T05:19:16.568Z,3.09
2017-04-08T05:20:16.280Z,3.16
2017-04-08T05:21:15.957Z,2.94
2017-04-08T05:22:15.691Z,2.90
2017-04-08T05:23:15.408Z,2.86
2017-04-08T05:24:15.121Z,2.77
2017-04-08T05:25:14.786Z,2.81
2017-04-08T05:26:14.450Z,2.61
2017-04-08T05:27:14.136Z,2.76
2017-04-08T05:28:13.837Z,2.74
2017-04-08T05:29:13.546Z,3.17
2017-04-08T05:30:13.172Z,3.09
2017-04-08T05:31:12.855Z,2.93
2017-04-08T05:32:12.506Z,2.89
2017-04-08T05:33:12.200Z,3.04
2017-04-08T05:34:11.901Z,2.74
2017-04-08T05:35:11.627Z,3.26
2017-04-08T05:36:11.305Z,2.99
2017-04-08T05:37:11.012Z,3.09
2017-04-08T05:38:10.781Z,3.17
2017-04-08T05:39:10.443Z,3.34
2017-04-08T05:40:10.165Z,3.06
2017-04-08T05:41:09.856Z,3.07
2017-04-08T05:42:09.557Z,3.00
2017-04-08T05:43:09.222Z,3.00
2017-04-08T05:44:08.907Z,3.33
2017-04-08T05:45:08.591Z,2.86
2017-04-08T05:46:08.294Z,2.61
2017-04-08T05:47:07.976Z,3.07
2017-04-08T05:48:07.651Z,3.36
2017-04-08T05:49:07.295Z,3.40
2017-04-08T05:50:07.023Z,2.86
2017-04-08T05:51:06.713Z,3.20
2017-04-08T05:52:06.459Z,3.67
2017-04-08T05:53:06.296Z,3.27
2017-04-08T05:55:25.555Z,3.33
2017-04-08T05:56:25.231Z,3.60
2017-04-08T05:57:24.925Z,3.33
2017-04-08T05:58:24.693Z,3.29
2017-04-08T05:59:24.448Z,3.53
2017-04-08T06:00:24.385Z,3.16
2017-04-08T06:01:24.376Z,3.33
2017-04-08T06:02:24.510Z,3.26
2017-04-08T06:03:24.317Z,3.21
2017-04-08T06:04:24.241Z,3.33
2017-04-08T06:05:24.202Z,3.29
2017-04-08T06:06:23.927Z,3.11
2017-04-08T06:07:24.711Z,3.21
2017-04-08T06:08:24.615Z,3.44
2017-04-08T06:09:24.559Z,3.53
2017-04-08T06:10:24.392Z,3.40
2017-04-08T06:11:24.650Z,3.17
2017-04-08T06:12:24.782Z,3.14
2017-04-08T06:13:24.612Z,3.13
2017-04-08T06:14:24.434Z,3.50
2017-04-08T06:15:24.155Z,3.07
2017-04-08T06:16:24.114Z,3.23
2017-04-08T06:17:23.865Z,3.54
2017-04-08T06:19:34.156Z,3.73
2017-04-08T06:20:36.249Z,3.49
2017-04-08T06:21:36.027Z,3.63
2017-04-08T06:22:35.714Z,3.51
2017-04-08T06:23:38.640Z,3.56
2017-04-08T06:24:38.386Z,3.66
2017-04-08T06:25:38.080Z,3.74
2017-04-08T06:26:38.283Z,3.47
2017-04-08T06:27:37.992Z,3.50
2017-04-08T06:28:37.749Z,3.57
2017-04-08T06:29:37.450Z,3.71
2017-04-08T06:30:37.155Z,3.61
2017-04-08T06:31:36.884Z,3.87
2017-04-08T06:32:36.555Z,3.56
2017-04-08T06:33:36.280Z,3.91
2017-04-08T06:34:36.021Z,3.70
2017-04-08T06:35:35.718Z,3.71
2017-04-08T06:36:35.424Z,3.77
2017-04-08T06:37:35.108Z,3.09
2017-04-08T06:38:34.783Z,3.26
2017-04-08T06:39:34.613Z,3.51
2017-04-08T06:40:34.351Z,3.80
2017-04-08T06:41:34.418Z,3.44
2017-04-08T06:42:34.072Z,3.90
2017-04-08T06:43:33.887Z,3.79
2017-04-08T06:44:33.627Z,3.49
2017-04-08T06:45:33.328Z,3.53
2017-04-08T06:46:33.425Z,4.06
2017-04-08T06:47:33.318Z,4.04
2017-04-08T06:48:33.753Z,3.69
2017-04-08T06:49:33.990Z,3.86
2017-04-08T06:50:34.089Z,3.71
2017-04-08T06:51:33.813Z,3.77
2017-04-08T06:52:33.487Z,3.57
2017-04-08T06:53:33.693Z,3.80
2017-04-08T06:54:33.390Z,4.00
2017-04-08T06:55:33.389Z,3.44
2017-04-08T06:56:33.276Z,3.23
2017-04-08T06:57:33.322Z,3.37
2017-04-08T06:58:33.456Z,3.71
2017-04-08T06:59:33.252Z,3.74
2017-04-08T07:00:33.012Z,3.43
2017-04-08T07:01:32.734Z,3.69
2017-04-08T07:02:33.034Z,3.63
2017-04-08T07:03:32.771Z,3.33
2017-04-08T07:04:32.579Z,3.41
2017-04-08T07:05:33.232Z,3.60
2017-04-08T07:06:32.924Z,3.50
2017-04-08T07:07:32.620Z,3.33
2017-04-08T07:08:32.777Z,3.43
2017-04-08T07:09:32.471Z,3.37
2017-04-08T07:10:32.177Z,3.30
2017-04-08T07:11:32.004Z,3.10
2017-04-08T07:12:31.785Z,3.24
2017-04-08T07:13:31.501Z,4.46
2017-04-08T07:14:31.331Z,5.34
2017-04-08T07:15:31.104Z,6.21
2017-04-08T07:16:30.896Z,5.94
2017-04-08T07:17:30.572Z,6.09
2017-04-08T07:18:31.987Z,4.83
2017-04-08T07:19:33.177Z,5.47
2017-04-08T07:20:33.139Z,4.83
2017-04-08T07:21:32.844Z,4.26
2017-04-08T07:22:32.558Z,4.70
2017-04-08T07:23:32.268Z,4.16
2017-04-08T07:24:31.995Z,4.13
2017-04-08T07:25:31.734Z,3.73
2017-04-08T07:26:31.474Z,4.13
2017-04-08T07:27:31.182Z,3.46
2017-04-08T07:28:31.192Z,3.76
2017-04-08T07:29:30.952Z,3.66
2017-04-08T07:30:30.647Z,3.74
2017-04-08T07:32:41.390Z,23.66
2017-04-08T07:33:41.481Z,25.16
2017-04-08T07:34:41.228Z,27.44
2017-04-08T07:35:42.005Z,26.83
2017-04-08T07:36:42.070Z,27.93
2017-04-08T07:37:41.837Z,29.01
2017-04-08T07:38:42.407Z,26.37
2017-04-08T07:39:42.276Z,27.81
2017-04-08T07:40:42.168Z,32.49
2017-04-08T07:41:41.958Z,30.03
2017-04-08T07:42:41.769Z,28.10
2017-04-08T07:43:41.780Z,30.31
2017-04-08T07:44:41.809Z,28.60
2017-04-08T07:45:42.717Z,29.27
2017-04-08T07:46:42.644Z,30.19
2017-04-08T07:47:42.470Z,32.37
2017-04-08T07:48:42.337Z,30.61
2017-04-08T07:49:42.118Z,31.33
2017-04-08T07:50:41.950Z,32.03
2017-04-08T07:51:41.720Z,31.59
2017-04-08T07:52:41.510Z,33.77
2017-04-08T07:53:42.214Z,30.83
2017-04-08T07:54:41.977Z,30.39
2017-04-08T07:55:41.810Z,31.03
2017-04-08T07:56:41.604Z,31.56
2017-04-08T07:57:41.507Z,32.39
2017-04-08T07:58:41.318Z,31.37
2017-04-08T07:59:41.106Z,32.94
2017-04-08T08:00:40.959Z,35.36
2017-04-08T08:01:40.856Z,32.39
2017-04-08T08:02:40.775Z,33.79
2017-04-08T08:03:42.423Z,35.53
2017-04-08T08:04:42.627Z,34.04
2017-04-08T08:05:43.639Z,33.14
2017-04-08T08:06:45.347Z,32.19
2017-04-08T08:07:45.988Z,34.79
2017-04-08T08:08:45.809Z,32.74
2017-04-08T08:09:45.577Z,31.69
2017-04-08T08:10:46.059Z,33.26
2017-04-08T08:11:45.845Z,34.13
2017-04-08T08:12:45.659Z,31.19
2017-04-08T08:13:45.409Z,31.66
2017-04-08T08:14:45.860Z,31.99
2017-04-08T08:15:45.676Z,32.57
2017-04-08T08:16:45.461Z,33.64
2017-04-08T08:17:45.400Z,32.07
2017-04-08T08:18:45.879Z,29.89
2017-04-08T08:19:45.670Z,32.41
2017-04-08T08:20:45.430Z,33.31
2017-04-08T08:21:45.198Z,31.71
2017-04-08T08:22:45.020Z,32.66
2017-04-08T08:23:44.809Z,29.50
2017-04-08T08:24:44.631Z,32.16
2017-04-08T08:25:44.398Z,30.19
2017-04-08T08:26:44.191Z,30.87
2017-04-08T08:27:47.650Z,32.23
2017-04-08T08:28:47.549Z,32.26
2017-04-08T08:29:47.422Z,32.36
2017-04-08T08:30:47.387Z,35.19
2017-04-08T08:31:47.851Z,31.60
2017-04-08T08:32:47.739Z,32.19
2017-04-08T08:33:47.594Z,29.21
2017-04-08T08:34:47.825Z,29.39
2017-04-08T08:35:47.736Z,30.91
2017-04-08T08:36:47.816Z,33.59
2017-04-08T08:37:48.231Z,33.73
2017-04-08T08:38:48.280Z,32.10
2017-04-08T08:39:49.133Z,36.74
2017-04-08T08:40:49.290Z,34.40
2017-04-08T08:41:49.552Z,30.00
2017-04-08T08:42:50.422Z,29.24
2017-04-08T08:43:50.712Z,30.09
2017-04-08T08:44:51.039Z,29.54
2017-04-08T08:45:51.258Z,27.51
2017-04-08T08:46:51.149Z,28.36
2017-04-08T08:47:51.190Z,27.86
2017-04-08T08:48:51.409Z,26.51
2017-04-08T08:49:51.555Z,26.83
2017-04-08T08:50:51.573Z,26.19
2017-04-08T08:51:51.555Z,26.60
2017-04-08T08:52:51.471Z,28.07
2017-04-08T08:53:51.356Z,25.91
2017-04-08T08:54:51.177Z,24.59
2017-04-08T08:55:51.181Z,26.70
2017-04-08T08:56:51.022Z,28.37
2017-04-08T08:57:50.920Z,26.07
2017-04-08T08:58:51.557Z,25.20
2017-04-08T08:59:51.762Z,29.39
2017-04-08T09:00:52.098Z,29.10
2017-04-08T09:01:52.036Z,27.59
2017-04-08T09:02:52.237Z,28.20
2017-04-08T09:03:52.323Z,24.60
2017-04-08T09:04:52.403Z,26.21
2017-04-08T09:05:53.208Z,28.01
2017-04-08T09:06:53.321Z,28.07
2017-04-08T09:07:53.447Z,32.27
2017-04-08T09:08:53.751Z,32.27
2017-04-08T09:09:53.607Z,31.17
2017-04-08T09:10:54.737Z,29.69
2017-04-08T09:11:55.922Z,29.11
2017-04-08T09:12:55.814Z,28.74
2017-04-08T09:13:55.709Z,26.43
2017-04-08T09:14:55.555Z,26.70
2017-04-08T09:15:55.511Z,27.09
2017-04-08T09:16:55.559Z,27.89
2017-04-08T09:17:56.565Z,26.46
2017-04-08T09:18:56.450Z,27.14
2017-04-08T09:19:56.308Z,25.01
2017-04-08T09:20:56.222Z,27.67
2017-04-08T09:21:56.210Z,26.11
2017-04-08T09:22:56.352Z,24.83
2017-04-08T09:23:57.166Z,23.61
2017-04-08T09:24:57.093Z,25.51
2017-04-08T09:25:57.007Z,29.07
2017-04-08T09:26:58.145Z,26.97
2017-04-08T09:27:58.213Z,23.19
2017-04-08T09:28:58.140Z,20.24
2017-04-08T09:29:58.098Z,20.26
2017-04-08T09:30:58.192Z,19.73
2017-04-08T09:31:58.233Z,19.50
2017-04-08T09:32:58.144Z,19.60
2017-04-08T09:33:58.070Z,19.67
2017-04-08T09:34:57.958Z,20.73
2017-04-08T09:35:58.001Z,23.03
2017-04-08T09:36:57.995Z,20.56
2017-04-08T09:37:59.209Z,21.34
2017-04-08T09:38:59.362Z,19.90
2017-04-08T09:40:01.051Z,19.53
2017-04-08T09:41:02.427Z,16.53
2017-04-08T09:42:04.182Z,16.99
2017-04-08T09:43:05.527Z,15.80
2017-04-08T09:44:06.018Z,15.34
2017-04-08T09:45:06.703Z,16.00
2017-04-08T09:46:06.683Z,16.33
2017-04-08T09:47:06.627Z,17.86
2017-04-08T09:48:07.407Z,17.70
2017-04-08T09:49:08.384Z,17.09
2017-04-08T09:50:09.268Z,17.79
2017-04-08T09:51:09.517Z,18.69
2017-04-08T09:52:12.479Z,19.79
2017-04-08T09:53:17.043Z,17.54
2017-04-08T09:54:19.983Z,17.67
2017-04-08T09:55:21.137Z,16.30
2017-04-08T09:56:22.142Z,15.79
2017-04-08T09:57:23.617Z,16.73
2017-04-08T09:58:24.492Z,15.09
2017-04-08T09:59:25.757Z,14.83
2017-04-08T10:00:27.150Z,14.67
2017-04-08T10:01:29.389Z,16.84
2017-04-08T10:02:30.480Z,16.14
2017-04-08T10:03:31.846Z,20.39
2017-04-08T10:04:33.094Z,18.60
2017-04-08T10:05:33.961Z,18.59
2017-04-08T10:06:34.774Z,19.37
2017-04-08T10:07:34.602Z,18.76
2017-04-08T10:08:34.554Z,19.01
2017-04-08T10:09:34.483Z,18.09
2017-04-08T10:10:34.416Z,17.47
2017-04-08T10:11:34.271Z,15.66
2017-04-08T10:12:34.290Z,15.64
2017-04-08T10:13:34.202Z,14.60
2017-04-08T10:14:34.995Z,15.19
2017-04-08T10:15:34.915Z,16.77
2017-04-08T10:16:35.878Z,16.56
2017-04-08T10:17:35.937Z,18.30
2017-04-08T10:18:35.882Z,16.59
2017-04-08T10:19:35.964Z,18.57
2017-04-08T10:20:35.864Z,17.57
2017-04-08T10:21:36.679Z,17.77
2017-04-08T10:22:37.053Z,17.69
2017-04-08T10:23:37.512Z,19.14
2017-04-08T10:24:37.952Z,18.91
2017-04-08T10:25:37.888Z,18.30
2017-04-08T10:26:39.321Z,17.89
2017-04-08T10:27:39.285Z,18.79
2017-04-08T10:28:40.046Z,16.71
2017-04-08T10:29:40.594Z,17.23
2017-04-08T10:30:40.457Z,17.17
2017-04-08T10:31:40.410Z,16.46
2017-04-08T10:32:40.266Z,15.71
2017-04-08T10:33:40.251Z,15.37
2017-04-08T10:34:40.306Z,16.33
2017-04-08T10:35:40.224Z,14.69
2017-04-08T10:36:40.232Z,14.97
2017-04-08T10:37:40.208Z,14.43
2017-04-08T10:38:40.133Z,16.70
2017-04-08T10:39:39.995Z,16.66
2017-04-08T10:40:39.897Z,14.77
2017-04-08T10:41:39.821Z,16.17
2017-04-08T10:42:39.780Z,16.10
2017-04-08T10:43:39.789Z,16.54
2017-04-08T10:44:39.785Z,14.97
2017-04-08T10:45:39.631Z,15.86
2017-04-08T10:46:39.564Z,16.34
2017-04-08T10:47:39.845Z,16.51
2017-04-08T10:48:39.860Z,15.26
2017-04-08T10:49:39.995Z,16.00
2017-04-08T10:50:39.948Z,15.34
2017-04-08T10:51:39.770Z,15.30
2017-04-08T10:52:39.747Z,14.70
2017-04-08T10:53:39.661Z,15.39
2017-04-08T10:54:39.587Z,13.83
2017-04-08T10:55:39.559Z,15.04
2017-04-08T10:56:42.153Z,16.41
2017-04-08T10:57:42.087Z,15.74
2017-04-08T10:58:42.109Z,15.97
2017-04-08T10:59:42.025Z,15.91
2017-04-08T11:00:42.114Z,15.97
2017-04-08T11:01:43.677Z,15.59
2017-04-08T11:02:44.994Z,14.81
2017-04-08T11:03:44.930Z,16.21
2017-04-08T11:04:45.066Z,16.63
2017-04-08T11:05:45.074Z,15.81
2017-04-08T11:06:44.965Z,17.43
2017-04-08T11:07:45.045Z,15.63
2017-04-08T11:08:45.102Z,16.47
2017-04-08T11:09:45.094Z,13.74
2017-04-08T11:10:45.514Z,14.11
2017-04-08T11:11:45.453Z,14.41
2017-04-08T11:12:45.496Z,15.80
2017-04-08T11:13:45.397Z,14.97
2017-04-08T11:14:45.684Z,14.11
2017-04-08T11:15:45.536Z,16.31
2017-04-08T11:16:45.696Z,16.10
2017-04-08T11:17:46.027Z,15.03
2017-04-08T11:18:45.875Z,13.56
2017-04-08T11:19:45.869Z,13.86
2017-04-08T11:20:45.786Z,14.31
2017-04-08T11:21:45.698Z,14.67
2017-04-08T11:22:45.631Z,14.79
2017-04-08T11:23:45.660Z,15.16
2017-04-08T11:24:45.755Z,14.06
2017-04-08T11:25:45.675Z,14.43
2017-04-08T11:26:45.591Z,14.33
2017-04-08T11:27:45.479Z,14.04
2017-04-08T11:28:45.442Z,15.47
2017-04-08T11:29:50.220Z,15.01
2017-04-08T11:30:51.048Z,15.70
2017-04-08T11:31:51.095Z,16.56
2017-04-08T11:32:51.047Z,15.03
2017-04-08T11:33:51.239Z,16.43
2017-04-08T11:34:51.201Z,15.40
2017-04-08T11:35:52.451Z,17.46
2017-04-08T11:36:53.102Z,16.10
2017-04-08T11:37:53.026Z,15.53
2017-04-08T11:38:52.905Z,14.99
2017-04-08T11:39:52.880Z,15.53
2017-04-08T11:40:52.773Z,14.97
2017-04-08T11:41:52.845Z,14.37
2017-04-08T11:42:52.835Z,13.99
2017-04-08T11:43:53.230Z,13.87
2017-04-08T11:44:53.438Z,15.00
2017-04-08T11:45:53.312Z,14.89
2017-04-08T11:46:53.332Z,14.01
2017-04-08T11:47:53.254Z,13.71
2017-04-08T11:48:53.178Z,15.34
2017-04-08T11:49:53.143Z,14.01
2017-04-08T11:50:53.051Z,14.04
2017-04-08T11:51:52.934Z,14.36
2017-04-08T11:52:52.852Z,15.74
2017-04-08T11:53:52.856Z,16.19
2017-04-08T11:54:54.050Z,17.87
2017-04-08T11:55:54.086Z,16.91
2017-04-08T11:56:54.030Z,15.83
2017-04-08T11:57:53.984Z,16.23
2017-04-08T11:58:53.916Z,16.11
2017-04-08T11:59:53.925Z,17.64
2017-04-08T12:00:53.829Z,16.10
2017-04-08T12:01:53.768Z,17.20
2017-04-08T12:02:54.501Z,17.10
2017-04-08T12:03:54.427Z,16.90
2017-04-08T12:04:54.276Z,17.24
2017-04-08T12:05:54.195Z,17.17
2017-04-08T12:06:54.107Z,16.84
2017-04-08T12:07:53.914Z,16.41
2017-04-08T12:08:53.775Z,16.33
2017-04-08T12:09:53.672Z,15.67
2017-04-08T12:10:53.667Z,17.76
2017-04-08T12:11:53.728Z,17.03
2017-04-08T12:12:53.572Z,15.49
2017-04-08T12:13:54.515Z,16.10
2017-04-08T12:14:54.355Z,16.54
2017-04-08T12:15:54.328Z,16.93
2017-04-08T12:16:54.170Z,17.44
2017-04-08T12:17:54.204Z,15.53
2017-04-08T12:18:53.995Z,15.94
2017-04-08T12:19:53.896Z,16.23
2017-04-08T12:20:53.758Z,15.10
2017-04-08T12:21:53.644Z,17.00
2017-04-08T12:22:53.677Z,17.67
2017-04-08T12:23:53.425Z,17.31
2017-04-08T12:24:53.307Z,18.11
2017-04-08T12:25:53.171Z,16.03
2017-04-08T12:26:53.080Z,14.69
2017-04-08T12:27:53.107Z,14.49
2017-04-08T12:28:53.040Z,16.37
2017-04-08T12:29:52.953Z,15.83
2017-04-08T12:30:53.575Z,16.01
2017-04-08T12:31:53.735Z,14.66
2017-04-08T12:32:53.642Z,15.33
2017-04-08T12:33:54.077Z,14.19
2017-04-08T12:34:53.965Z,13.94
2017-04-08T12:35:53.841Z,14.07
2017-04-08T12:36:53.701Z,14.29
2017-04-08T12:37:53.584Z,13.90
2017-04-08T12:38:53.466Z,15.96
2017-04-08T12:39:53.431Z,15.96
2017-04-08T12:40:53.271Z,15.50
2017-04-08T12:41:53.346Z,17.50
2017-04-08T12:42:53.246Z,16.30
2017-04-08T12:43:53.606Z,16.79
2017-04-08T12:44:53.543Z,17.64
2017-04-08T12:45:53.612Z,17.13
2017-04-08T12:46:53.537Z,18.57
2017-04-08T12:47:53.432Z,17.47
2017-04-08T12:48:53.605Z,17.21
2017-04-08T12:49:53.464Z,17.89
2017-04-08T12:50:53.401Z,17.74
2017-04-08T12:51:53.273Z,17.80
2017-04-08T12:52:53.144Z,17.11
2017-04-08T12:53:53.116Z,17.11
2017-04-08T12:54:52.991Z,17.36
2017-04-08T12:55:52.915Z,18.57
2017-04-08T12:56:52.782Z,18.54
2017-04-08T12:57:52.617Z,17.27
2017-04-08T12:58:52.484Z,17.40
2017-04-08T12:59:52.348Z,17.73
2017-04-08T13:00:52.239Z,16.37
2017-04-08T13:01:52.156Z,17.34
2017-04-08T13:02:52.105Z,17.11
2017-04-08T13:03:52.616Z,17.66
2017-04-08T13:04:52.539Z,18.50
2017-04-08T13:05:52.422Z,17.23
2017-04-08T13:06:52.259Z,17.36
2017-04-08T13:07:52.330Z,17.37
2017-04-08T13:08:52.812Z,18.51
2017-04-08T13:09:52.712Z,17.60
2017-04-08T13:10:52.498Z,17.86
2017-04-08T13:11:52.405Z,18.16